createdAt,value
2018-06-05T05:25:24.940Z,23.82
2018-06-05T05:27:52.536Z,23.49
2018-06-05T05:30:19.929Z,23.72
2018-06-05T05:32:47.423Z,23.32
2018-06-05T05:35:14.901Z,23.51
2018-06-05T05:37:42.395Z,23.60
2018-06-05T05:40:10.543Z,23.43
2018-06-05T05:42:38.304Z,23.74
2018-06-05T05:45:05.504Z,23.64
2018-06-05T05:47:33.005Z,23.73
2018-06-05T05:50:00.499Z,23.84
2018-06-05T05:52:28.416Z,23.88
2018-06-05T05:54:55.662Z,24.36
2018-06-05T05:57:23.870Z,24.93
2018-06-05T05:59:51.563Z,24.20
2018-06-05T06:02:18.850Z,24.26
2018-06-05T06:04:46.340Z,24.30
2018-06-05T06:07:13.836Z,24.29
2018-06-05T06:09:41.331Z,23.97
2018-06-05T06:12:08.816Z,23.98
2018-06-05T06:14:36.725Z,24.19
2018-06-05T06:17:04.038Z,24.49
2018-06-05T06:19:31.299Z,24.59
2018-06-05T06:21:58.793Z,24.36
2018-06-05T06:24:26.292Z,24.54
2018-06-05T06:26:53.805Z,24.32
2018-06-05T06:29:21.278Z,24.73
2018-06-05T06:31:48.864Z,24.67
2018-06-05T06:34:16.482Z,24.77
2018-06-05T06:36:43.809Z,24.24
2018-06-05T06:39:11.441Z,24.27
2018-06-05T06:41:38.880Z,24.56
2018-06-05T06:44:06.663Z,24.95
2018-06-05T06:46:35.050Z,24.71
2018-06-05T06:49:01.329Z,25.04
2018-06-05T06:51:28.789Z,24.99
2018-06-05T06:53:56.637Z,24.98
2018-06-05T06:56:23.949Z,24.73
2018-06-05T06:58:51.591Z,24.78
2018-06-05T07:01:18.974Z,24.65
2018-06-05T07:03:46.238Z,24.74
2018-06-05T07:06:13.732Z,24.86
2018-06-05T07:08:41.829Z,24.90
2018-06-05T07:11:08.707Z,24.93
2018-06-05T07:13:37.209Z,24.82
2018-06-05T07:16:03.730Z,24.66
2018-06-05T07:18:32.428Z,24.59
2018-06-05T07:20:58.676Z,24.63
2018-06-05T07:23:26.611Z,24.75
2018-06-05T07:25:53.654Z,24.67
2018-06-05T07:28:21.141Z,24.75
2018-06-05T07:30:49.143Z,24.83
2018-06-05T07:33:16.124Z,24.86
2018-06-05T07:35:43.617Z,24.73
2018-06-05T07:38:11.103Z,24.76
2018-06-05T07:40:38.595Z,24.55
2018-06-05T07:43:06.085Z,24.86
2018-06-05T07:45:34.477Z,24.49
2018-06-05T07:48:01.068Z,24.61
2018-06-05T07:50:28.570Z,24.60
2018-06-05T07:52:56.876Z,24.68
2018-06-05T07:55:23.734Z,24.48
2018-06-05T07:57:52.236Z,24.33
2018-06-05T08:00:18.543Z,24.41
2018-06-05T08:02:47.069Z,24.63
2018-06-05T08:05:14.347Z,25.01
2018-06-05T08:07:41.133Z,25.21
2018-06-05T08:10:09.348Z,24.98
2018-06-05T08:12:36.829Z,25.05
2018-06-05T08:15:03.649Z,24.98
2018-06-05T08:17:31.129Z,24.63
2018-06-05T08:19:58.600Z,24.85
2018-06-05T08:22:27.166Z,25.11
2018-06-05T08:24:53.584Z,25.05
2018-06-05T08:27:21.179Z,25.01
2018-06-05T08:29:48.563Z,25.24
2018-06-05T08:32:16.111Z,25.00
2018-06-05T08:34:43.592Z,24.94
2018-06-05T08:37:11.090Z,24.92
2018-06-05T08:39:38.665Z,25.39
2018-06-05T08:42:06.064Z,24.77
2018-06-05T08:44:33.556Z,24.81
2018-06-05T08:47:01.597Z,25.41
2018-06-05T08:49:28.535Z,24.86
2018-06-05T08:51:56.034Z,24.79
2018-06-05T08:54:24.750Z,24.90
2018-06-05T08:56:51.036Z,24.80
2018-06-05T08:59:18.527Z,24.88
2018-06-05T09:01:46.017Z,24.72
2018-06-05T09:04:13.507Z,24.93
2018-06-05T09:06:41.428Z,24.79
2018-06-05T09:09:08.492Z,24.71
2018-06-05T09:11:36.043Z,24.46
2018-06-05T09:14:03.517Z,24.76
2018-06-05T09:16:31.065Z,24.44
2018-06-05T09:18:58.567Z,24.41
2018-06-05T09:21:27.249Z,24.52
2018-06-05T09:23:53.857Z,24.65
2018-06-05T09:26:21.015Z,24.29
2018-06-05T09:28:48.661Z,24.55
2018-06-05T09:31:16.004Z,24.02
2018-06-05T09:33:43.549Z,24.44
2018-06-05T09:36:11.072Z,24.57
2018-06-05T09:38:38.649Z,24.36
2018-06-05T09:41:06.656Z,24.38
2018-06-05T09:43:34.350Z,24.72
2018-06-05T09:46:01.620Z,24.26
2018-06-05T09:48:29.117Z,24.42
2018-06-05T09:50:56.624Z,24.32
2018-06-05T09:53:24.405Z,24.38
2018-06-05T09:55:51.988Z,24.73
2018-06-05T09:58:19.291Z,24.52
2018-06-05T10:00:46.888Z,24.24
2018-06-05T10:03:14.074Z,24.65
2018-06-05T10:05:41.542Z,24.55
2018-06-05T10:08:09.046Z,24.52
2018-06-05T10:10:36.521Z,24.43
2018-06-05T10:13:03.991Z,24.46
2018-06-05T10:15:31.411Z,24.33
2018-06-05T10:17:59.337Z,24.13
2018-06-05T10:20:26.405Z,24.05
2018-06-05T10:22:53.754Z,24.26
2018-06-05T10:25:21.238Z,24.41
2018-06-05T10:27:49.180Z,24.62
2018-06-05T10:30:16.137Z,24.81
2018-06-05T10:32:43.589Z,24.62
2018-06-05T10:35:11.024Z,24.59
2018-06-05T10:37:38.469Z,24.36
2018-06-05T10:40:05.952Z,24.71
2018-06-05T10:42:33.361Z,24.71
2018-06-05T10:45:00.782Z,24.55
2018-06-05T10:47:28.261Z,24.97
2018-06-05T10:49:55.732Z,24.35
2018-06-05T10:52:23.153Z,24.44
2018-06-05T10:54:50.628Z,24.70
2018-06-05T10:57:18.146Z,24.62
2018-06-05T10:59:45.565Z,24.44
2018-06-05T11:02:13.044Z,24.57
2018-06-05T11:04:40.489Z,24.58
2018-06-05T11:07:08.122Z,25.11
2018-06-05T11:09:35.567Z,25.07
2018-06-05T11:12:03.014Z,24.60
2018-06-05T11:14:30.476Z,24.70
2018-06-05T11:16:58.225Z,24.50
2018-06-05T11:19:25.667Z,24.62
2018-06-05T11:21:53.121Z,24.14
2018-06-05T11:24:20.545Z,24.32
2018-06-05T11:26:48.021Z,24.74
2018-06-05T11:29:15.446Z,24.74
2018-06-05T11:31:42.920Z,24.36
2018-06-05T11:34:10.371Z,24.38
2018-06-05T11:36:37.802Z,24.42
2018-06-05T11:39:05.276Z,24.18
2018-06-05T11:41:32.741Z,24.35
2018-06-05T11:44:00.187Z,24.53
2018-06-05T11:46:27.647Z,24.45
2018-06-05T11:48:55.733Z,24.82
2018-06-05T11:51:23.004Z,24.75
2018-06-05T11:53:50.449Z,24.72
2018-06-05T11:56:17.930Z,24.56
2018-06-05T11:58:45.348Z,24.65
2018-06-05T12:01:12.793Z,24.76
2018-06-05T12:03:40.272Z,24.28
2018-06-05T12:08:42.632Z,24.05
2018-06-05T12:11:20.394Z,23.78
2018-06-05T12:13:48.876Z,23.84
2018-06-05T12:16:16.089Z,24.09
2018-06-05T12:18:55.046Z,24.01
2018-06-05T12:21:36.406Z,23.74
2018-06-05T12:26:58.513Z,24.38
2018-06-05T12:29:25.557Z,24.20
2018-06-05T12:31:53.002Z,24.31
2018-06-05T12:34:20.448Z,24.39
2018-06-05T12:36:47.950Z,24.31
2018-06-05T12:39:15.388Z,24.07
2018-06-05T12:41:42.857Z,23.76
2018-06-05T12:44:10.297Z,23.54
2018-06-05T12:46:37.744Z,23.86
2018-06-05T12:49:06.076Z,23.90
2018-06-05T12:51:34.159Z,23.92
2018-06-05T12:54:01.558Z,23.88
2018-06-05T12:56:29.292Z,23.65
2018-06-05T12:59:01.691Z,23.70
2018-06-05T13:01:29.165Z,23.50
2018-06-05T13:03:56.578Z,23.79
2018-06-05T13:06:24.089Z,23.69
2018-06-05T13:08:51.485Z,23.92
2018-06-05T13:11:18.979Z,23.87
2018-06-05T13:13:46.421Z,23.61
2018-06-05T13:16:13.923Z,23.47
2018-06-05T13:18:41.320Z,23.65
2018-06-05T13:21:08.767Z,23.53
2018-06-05T13:23:36.220Z,23.36
2018-06-05T13:26:03.641Z,23.60
2018-06-05T13:28:31.112Z,23.62
2018-06-05T13:30:58.557Z,23.61
2018-06-05T13:33:26.032Z,23.34
2018-06-05T13:35:53.466Z,23.30
2018-06-05T13:38:21.603Z,23.14
2018-06-05T13:40:49.043Z,23.22
2018-06-05T13:43:16.524Z,23.09
2018-06-05T13:45:43.979Z,22.98
2018-06-05T13:48:12.396Z,23.24
2018-06-05T13:50:39.853Z,22.95
2018-06-05T13:53:07.261Z,23.06
2018-06-05T13:55:34.718Z,23.27
2018-06-05T13:58:02.174Z,23.07
2018-06-05T14:00:29.747Z,23.12
2018-06-05T14:02:57.190Z,23.02
2018-06-05T14:05:24.642Z,23.25
2018-06-05T14:07:52.095Z,23.17
2018-06-05T14:10:19.501Z,23.12
2018-06-05T14:13:01.845Z,23.55
2018-06-05T14:18:31.155Z,23.93
2018-06-05T14:21:07.738Z,23.96
2018-06-05T14:23:51.157Z,23.75
2018-06-05T14:26:37.202Z,24.02
2018-06-05T14:29:05.488Z,23.96
2018-06-05T14:31:33.157Z,23.76
2018-06-05T14:34:22.868Z,23.41
2018-06-05T14:37:17.883Z,23.63
2018-06-05T15:33:17.605Z,23.12
2018-06-05T15:35:45.319Z,23.06
2018-06-05T15:38:12.611Z,22.91
2018-06-05T15:40:40.123Z,22.91
2018-06-05T15:43:07.611Z,23.03
2018-06-05T15:45:35.102Z,22.92
2018-06-05T15:48:02.659Z,22.74
2018-06-05T15:50:33.868Z,23.32
2018-06-05T15:53:02.385Z,23.39
2018-06-05T15:55:32.233Z,23.23
2018-06-05T15:58:00.780Z,23.34
2018-06-05T16:00:29.408Z,23.37
2018-06-05T16:02:57.534Z,23.26
2018-06-05T16:05:24.984Z,23.15
2018-06-05T16:07:55.333Z,23.16
2018-06-05T16:10:22.839Z,23.58
2018-06-05T16:12:50.330Z,23.64
2018-06-05T16:15:18.113Z,23.54
2018-06-05T16:17:45.645Z,23.14
2018-06-05T16:20:13.147Z,23.48
2018-06-05T16:22:40.667Z,23.10
2018-06-05T16:25:08.134Z,23.13
2018-06-05T16:27:35.578Z,23.19
2018-06-05T16:30:03.051Z,23.06
2018-06-05T16:32:30.534Z,23.30
2018-06-05T16:34:57.993Z,23.35
2018-06-05T16:37:25.455Z,23.02
2018-06-05T16:39:53.133Z,22.96
2018-06-05T16:42:20.612Z,23.09
2018-06-05T16:44:48.071Z,22.85
2018-06-05T16:47:15.657Z,22.88
2018-06-05T16:49:43.064Z,22.69
2018-06-05T16:52:10.897Z,22.60
2018-06-05T16:54:38.460Z,23.16
2018-06-05T16:57:05.936Z,23.16
2018-06-05T16:59:33.373Z,23.36
2018-06-05T17:02:00.824Z,22.92
2018-06-05T17:04:30.098Z,22.71
2018-06-05T17:06:59.748Z,22.99
2018-06-05T17:09:26.879Z,23.22
2018-06-05T17:11:55.297Z,23.04
2018-06-05T17:14:21.647Z,23.37
2018-06-05T17:16:50.726Z,23.53
2018-06-05T17:19:18.615Z,24.04
2018-06-05T17:21:45.822Z,25.07
2018-06-05T17:24:13.354Z,23.28
2018-06-05T17:26:40.797Z,22.94
2018-06-05T17:29:08.346Z,22.97
2018-06-05T17:31:36.498Z,22.77
2018-06-05T17:34:04.813Z,22.78
2018-06-05T17:36:33.152Z,22.76
2018-06-05T17:38:59.741Z,22.52
2018-06-05T17:41:27.367Z,22.52
2018-06-05T17:43:54.820Z,22.69
2018-06-05T17:46:22.292Z,23.33
2018-06-05T17:48:49.765Z,23.21
2018-06-05T17:51:17.261Z,22.39
2018-06-05T17:53:44.809Z,21.31
2018-06-05T17:56:12.279Z,21.74
2018-06-05T17:58:39.770Z,21.45
2018-06-05T18:01:07.757Z,21.50
2018-06-05T18:03:35.166Z,21.27
2018-06-05T18:06:03.179Z,21.26
2018-06-05T18:08:31.060Z,21.34
2018-06-05T18:10:58.470Z,21.19
2018-06-05T18:13:26.021Z,21.53
2018-06-05T18:15:54.658Z,21.54
2018-06-05T18:18:22.250Z,21.76
2018-06-05T18:20:50.007Z,21.41
2018-06-05T18:23:17.426Z,21.67
2018-06-05T18:25:44.821Z,21.99
2018-06-05T18:28:12.252Z,21.94
2018-06-05T18:30:39.677Z,21.88
2018-06-05T18:33:07.465Z,21.97
2018-06-05T18:35:34.926Z,21.68
2018-06-05T18:38:02.574Z,21.92
2018-06-05T18:40:30.006Z,21.90
2018-06-05T18:42:57.744Z,21.90
2018-06-05T18:45:25.055Z,22.00
2018-06-05T18:47:52.652Z,21.96
